createdAt,value
2017-06-26T00:01:50.082Z,1.83
2017-06-26T00:04:19.522Z,1.90
2017-06-26T00:06:47.645Z,1.20
2017-06-26T00:09:15.719Z,1.87
2017-06-26T00:11:43.810Z,1.80
2017-06-26T00:14:12.760Z,1.85
2017-06-26T00:16:41.608Z,2.20
2017-06-26T00:19:09.814Z,1.60
2017-06-26T00:21:37.891Z,1.85
2017-06-26T00:24:06.037Z,1.80
2017-06-26T00:26:34.106Z,1.67
2017-06-26T00:29:02.239Z,1.42
2017-06-26T00:31:30.378Z,1.70
2017-06-26T00:33:59.235Z,1.48
2017-06-26T00:36:27.333Z,1.40
2017-06-26T00:38:56.234Z,1.60
2017-06-26T00:41:24.451Z,1.75
2017-06-26T00:43:52.660Z,1.60
2017-06-26T00:46:20.770Z,1.70
2017-06-26T00:48:48.954Z,2.10
2017-06-26T00:51:17.194Z,2.03
2017-06-26T00:53:45.731Z,1.42
2017-06-26T00:56:14.685Z,1.95
2017-06-26T00:58:42.819Z,1.90
2017-06-26T01:01:10.961Z,1.70
2017-06-26T01:03:39.042Z,1.45
2017-06-26T01:06:07.135Z,1.30
2017-06-26T01:08:35.408Z,1.83
2017-06-26T01:11:03.919Z,1.85
2017-06-26T01:13:32.141Z,2.05
2017-06-26T01:16:01.501Z,1.95
2017-06-26T01:18:29.587Z,1.75
2017-06-26T01:20:57.650Z,1.90
2017-06-26T01:23:27.268Z,1.90
2017-06-26T01:25:55.323Z,1.90
2017-06-26T01:28:23.383Z,1.60
2017-06-26T01:30:51.498Z,1.37
2017-06-26T01:33:19.570Z,1.83
2017-06-26T01:35:47.681Z,1.80
2017-06-26T01:38:15.744Z,1.40
2017-06-26T01:40:43.834Z,1.80
2017-06-26T01:43:11.893Z,1.37
2017-06-26T01:45:40.092Z,1.60
2017-06-26T01:48:09.701Z,1.83
2017-06-26T01:50:37.882Z,1.75
2017-06-26T01:53:06.930Z,1.40
2017-06-26T01:55:35.049Z,1.48
2017-06-26T01:58:03.324Z,1.70
2017-06-26T02:00:31.463Z,1.33
2017-06-26T02:02:59.598Z,1.45
2017-06-26T02:05:27.727Z,1.80
2017-06-26T02:07:57.285Z,1.65
2017-06-26T02:10:25.978Z,1.70
2017-06-26T02:12:54.040Z,1.67
2017-06-26T02:15:22.192Z,2.00
2017-06-26T02:17:50.241Z,1.85
2017-06-26T02:20:18.318Z,1.90
2017-06-26T02:22:46.416Z,1.98
2017-06-26T02:25:14.490Z,1.85
2017-06-26T02:27:42.553Z,2.30
2017-06-26T02:30:11.439Z,1.50
2017-06-26T02:32:39.507Z,1.67
2017-06-26T02:35:07.563Z,1.67
2017-06-26T02:37:35.623Z,1.80
2017-06-26T02:40:03.801Z,1.83
2017-06-26T02:42:31.925Z,1.65
2017-06-26T02:45:00.126Z,1.35
2017-06-26T02:47:29.328Z,1.40
2017-06-26T02:49:57.389Z,1.60
2017-06-26T02:52:26.967Z,1.98
2017-06-26T02:54:55.036Z,2.03
2017-06-26T02:57:23.250Z,1.65
2017-06-26T02:59:52.600Z,1.80
2017-06-26T03:02:20.708Z,1.65
2017-06-26T03:04:48.881Z,1.70
2017-06-26T03:07:17.070Z,2.75
2017-06-26T03:09:45.226Z,1.60
2017-06-26T03:12:13.302Z,1.50
2017-06-26T03:14:41.522Z,1.70
2017-06-26T03:17:09.611Z,1.30
2017-06-26T03:19:37.766Z,1.70
2017-06-26T03:22:05.821Z,1.95
2017-06-26T03:24:33.911Z,2.50
2017-06-26T03:27:02.011Z,2.05
2017-06-26T03:29:30.109Z,2.00
2017-06-26T03:31:58.235Z,1.52
2017-06-26T03:34:26.351Z,1.77
2017-06-26T03:36:54.995Z,2.40
2017-06-26T03:39:23.113Z,1.50
2017-06-26T03:41:51.177Z,2.15
2017-06-26T03:44:19.658Z,2.03
2017-06-26T03:46:47.766Z,1.40
2017-06-26T03:49:15.832Z,2.28
2017-06-26T03:51:45.543Z,1.90
2017-06-26T03:54:14.463Z,1.85
2017-06-26T03:56:42.654Z,1.67
2017-06-26T03:59:11.219Z,1.95
2017-06-26T04:01:39.391Z,2.28
2017-06-26T04:04:07.517Z,2.20
2017-06-26T04:06:36.993Z,1.95
2017-06-26T04:09:05.045Z,1.98
2017-06-26T04:11:33.151Z,2.08
2017-06-26T04:14:01.966Z,2.15
2017-06-26T04:16:30.062Z,2.40
2017-06-26T04:18:58.270Z,1.92
2017-06-26T04:21:26.758Z,1.90
2017-06-26T04:23:54.894Z,2.50
2017-06-26T04:26:22.978Z,2.50
2017-06-26T04:28:51.037Z,1.52
2017-06-26T04:31:20.250Z,2.40
2017-06-26T04:33:48.344Z,1.80
2017-06-26T04:36:17.215Z,2.15
2017-06-26T04:38:46.072Z,1.80
2017-06-26T04:41:14.557Z,2.58
2017-06-26T04:43:42.717Z,2.20
2017-06-26T04:46:10.852Z,2.10
2017-06-26T04:48:40.415Z,2.55
2017-06-26T04:51:08.493Z,2.22
2017-06-26T04:53:37.412Z,2.30
2017-06-26T04:56:05.886Z,2.95
2017-06-26T04:58:34.066Z,2.40
2017-06-26T05:01:02.838Z,2.55
2017-06-26T05:03:31.321Z,2.55
2017-06-26T05:05:59.381Z,2.87
2017-06-26T05:08:27.481Z,2.40
2017-06-26T05:10:55.952Z,2.90
2017-06-26T05:13:24.397Z,1.77
2017-06-26T05:15:52.475Z,1.90
2017-06-26T05:18:21.049Z,2.47
2017-06-26T05:20:49.181Z,2.30
2017-06-26T05:23:18.050Z,2.47
2017-06-26T05:25:46.132Z,2.92
2017-06-26T05:28:14.623Z,2.97
2017-06-26T05:30:43.566Z,3.40
2017-06-26T05:33:12.028Z,2.75
2017-06-26T05:35:40.983Z,2.90
2017-06-26T05:38:09.854Z,2.60
2017-06-26T05:40:38.710Z,2.50
2017-06-26T05:43:06.930Z,3.45
2017-06-26T05:45:35.001Z,2.87
2017-06-26T05:48:03.096Z,2.78
2017-06-26T05:50:31.957Z,2.55
2017-06-26T05:53:00.438Z,3.30
2017-06-26T05:55:29.897Z,1.55
2017-06-26T05:57:59.009Z,2.45
2017-06-26T06:00:27.121Z,1.70
2017-06-26T06:02:55.201Z,2.53
2017-06-26T06:05:23.334Z,1.92
2017-06-26T06:07:51.434Z,2.10
2017-06-26T06:10:19.533Z,1.80
2017-06-26T06:12:47.678Z,1.77
2017-06-26T06:15:16.554Z,1.85
2017-06-26T06:17:44.689Z,1.70
2017-06-26T06:20:12.851Z,2.40
2017-06-26T06:22:40.914Z,3.00
2017-06-26T06:25:09.778Z,1.58
2017-06-26T06:27:37.843Z,2.20
2017-06-26T06:30:05.938Z,1.70
2017-06-26T06:32:34.804Z,1.87
2017-06-26T06:35:02.898Z,1.80
2017-06-26T06:37:30.945Z,1.70
2017-06-26T06:39:59.002Z,2.05
2017-06-26T06:42:27.106Z,1.45
2017-06-26T06:44:55.177Z,1.37
2017-06-26T06:47:23.233Z,1.40
2017-06-26T06:49:51.327Z,1.42
2017-06-26T06:52:19.381Z,1.37
2017-06-26T06:54:47.495Z,1.60
2017-06-26T06:57:16.436Z,1.50
2017-06-26T06:59:44.478Z,1.25
2017-06-26T07:02:12.593Z,1.40
2017-06-26T07:04:40.687Z,1.60
2017-06-26T07:07:10.132Z,1.25
2017-06-26T07:09:38.099Z,1.48
2017-06-26T07:12:06.154Z,1.40
2017-06-26T07:14:34.276Z,1.45
2017-06-26T07:17:02.382Z,1.30
2017-06-26T07:19:30.456Z,1.40
2017-06-26T07:21:59.290Z,1.83
2017-06-26T07:24:27.366Z,1.35
2017-06-26T07:26:55.470Z,1.60
2017-06-26T07:29:23.517Z,1.33
2017-06-26T07:31:51.617Z,1.75
2017-06-26T07:34:19.678Z,1.20
2017-06-26T07:36:47.738Z,1.70
2017-06-26T07:39:15.838Z,2.30
2017-06-26T07:41:43.917Z,1.35
2017-06-26T07:44:12.778Z,1.60
2017-06-26T07:46:40.868Z,1.70
2017-06-26T07:49:09.703Z,1.35
2017-06-26T07:51:37.796Z,1.52
2017-06-26T07:54:05.882Z,1.80
2017-06-26T07:56:33.966Z,1.37
2017-06-26T07:59:02.140Z,1.50
2017-06-26T08:01:30.290Z,1.70
2017-06-26T08:03:58.409Z,1.30
2017-06-26T08:06:27.246Z,1.37
2017-06-26T08:08:55.317Z,1.40
2017-06-26T08:11:23.395Z,1.50
2017-06-26T08:13:52.599Z,1.20
2017-06-26T08:16:20.646Z,1.20
2017-06-26T08:18:48.755Z,1.50
2017-06-26T08:21:16.806Z,1.25
2017-06-26T08:23:44.857Z,1.35
2017-06-26T08:26:12.933Z,1.00
2017-06-26T08:28:40.989Z,1.00
2017-06-26T08:31:09.473Z,1.20
2017-06-26T08:33:37.521Z,1.20
2017-06-26T08:36:06.346Z,1.27
2017-06-26T08:38:34.421Z,1.10
2017-06-26T08:41:02.473Z,1.23
2017-06-26T08:43:30.545Z,1.30
2017-06-26T08:45:58.630Z,1.40
2017-06-26T08:48:26.711Z,1.37
2017-06-26T08:50:54.762Z,1.10
2017-06-26T08:53:23.241Z,1.25
2017-06-26T08:55:52.093Z,1.40
2017-06-26T08:58:20.909Z,1.30
2017-06-26T09:00:49.729Z,1.15
2017-06-26T09:03:18.258Z,1.27
2017-06-26T09:05:46.323Z,1.20
2017-06-26T09:08:14.786Z,1.12
2017-06-26T09:10:42.945Z,1.00
2017-06-26T09:13:11.377Z,0.98
2017-06-26T09:15:40.225Z,1.20
2017-06-26T09:18:09.042Z,0.90
2017-06-26T09:20:37.513Z,0.80
2017-06-26T09:23:06.330Z,0.80
2017-06-26T09:25:34.797Z,0.88
2017-06-26T09:28:02.882Z,1.08
2017-06-26T09:30:31.725Z,0.93
2017-06-26T09:32:59.813Z,0.90
2017-06-26T09:35:27.921Z,1.10
2017-06-26T09:37:56.045Z,1.30
2017-06-26T09:40:25.061Z,1.00
2017-06-26T09:42:53.193Z,0.88
2017-06-26T09:45:26.898Z,0.95
2017-06-26T09:48:01.193Z,0.90
2017-06-26T09:50:35.125Z,1.12
2017-06-26T09:53:09.570Z,1.17
2017-06-26T09:55:43.449Z,0.70
2017-06-26T09:58:17.062Z,0.80
2017-06-26T10:00:51.603Z,0.88
2017-06-26T10:03:26.258Z,0.90
2017-06-26T10:05:59.938Z,0.90
2017-06-26T10:08:33.662Z,0.90
2017-06-26T10:11:07.348Z,0.95
2017-06-26T10:13:41.090Z,0.90
2017-06-26T10:16:15.738Z,1.10
2017-06-26T10:18:49.534Z,0.75
2017-06-26T10:21:24.099Z,0.90
2017-06-26T10:23:57.826Z,1.12
2017-06-26T10:26:32.434Z,0.73
2017-06-26T10:29:06.938Z,0.80
2017-06-26T10:31:40.588Z,1.45
2017-06-26T10:34:14.249Z,1.00
2017-06-26T10:36:47.886Z,1.10
2017-06-26T10:39:22.493Z,0.80
2017-06-26T10:41:56.394Z,1.00
2017-06-26T10:44:30.014Z,1.10
2017-06-26T10:47:03.858Z,0.90
2017-06-26T10:49:38.443Z,1.00
2017-06-26T10:52:12.085Z,0.90
2017-06-26T10:54:45.768Z,0.80
2017-06-26T10:57:20.420Z,1.20
2017-06-26T10:59:54.994Z,1.30
2017-06-26T11:02:28.786Z,0.95
2017-06-26T11:05:02.434Z,0.93
2017-06-26T11:07:36.625Z,1.10
2017-06-26T11:10:10.301Z,0.98
2017-06-26T11:12:44.831Z,1.02
2017-06-26T11:15:18.639Z,1.00
2017-06-26T11:17:52.452Z,0.90
2017-06-26T11:20:26.786Z,1.20
2017-06-26T11:23:02.045Z,0.93
2017-06-26T11:25:36.281Z,0.90
2017-06-26T11:28:09.946Z,1.20
2017-06-26T11:30:44.378Z,1.00
2017-06-26T11:33:18.202Z,2.78
2017-06-26T11:35:52.573Z,1.10
2017-06-26T11:38:27.023Z,0.80
2017-06-26T11:41:00.778Z,1.12
2017-06-26T11:43:34.542Z,0.95
2017-06-26T11:46:08.358Z,1.08
2017-06-26T11:48:42.554Z,0.90
2017-06-26T11:51:17.137Z,1.25
2017-06-26T11:53:50.805Z,1.20
2017-06-26T11:56:24.630Z,0.80
2017-06-26T11:58:58.317Z,0.88
2017-06-26T12:01:32.102Z,0.82
2017-06-26T12:04:05.706Z,1.00
2017-06-26T12:06:39.534Z,1.10
2017-06-26T12:09:13.418Z,1.10
2017-06-26T12:11:47.474Z,0.80
2017-06-26T12:14:22.146Z,1.12
2017-06-26T12:16:55.814Z,1.20
2017-06-26T12:19:29.721Z,1.20
2017-06-26T12:22:04.213Z,0.80
2017-06-26T12:24:37.954Z,0.90
2017-06-26T12:27:12.585Z,1.08
2017-06-26T12:29:46.317Z,1.00
2017-06-26T12:32:20.047Z,0.90
2017-06-26T12:34:53.953Z,1.10
2017-06-26T12:37:27.993Z,1.10
2017-06-26T12:40:02.652Z,1.02
2017-06-26T12:42:36.361Z,1.00
2017-06-26T12:45:06.333Z,1.65
2017-06-26T12:47:34.401Z,1.15
2017-06-26T12:50:02.477Z,1.08
2017-06-26T12:52:30.568Z,0.90
2017-06-26T12:54:58.650Z,1.20
2017-06-26T12:57:26.757Z,1.17
2017-06-26T12:59:54.876Z,1.05
2017-06-26T13:02:22.988Z,1.05
2017-06-26T13:04:51.070Z,1.30
2017-06-26T13:07:19.513Z,1.50
2017-06-26T13:09:47.605Z,1.10
2017-06-26T13:12:15.686Z,1.20
2017-06-26T13:14:44.140Z,1.30
2017-06-26T13:17:12.216Z,1.10
2017-06-26T13:19:40.321Z,1.00
2017-06-26T13:22:08.367Z,1.10
2017-06-26T13:24:37.211Z,1.05
2017-06-26T13:27:05.285Z,0.93
2017-06-26T13:29:34.195Z,1.30
2017-06-26T13:32:02.615Z,1.42
2017-06-26T13:34:31.099Z,1.60
2017-06-26T13:36:59.170Z,1.30
2017-06-26T13:39:28.014Z,1.27
2017-06-26T13:41:56.089Z,1.20
2017-06-26T13:44:24.551Z,1.15
2017-06-26T13:46:53.373Z,1.15
2017-06-26T13:49:21.854Z,1.15
2017-06-26T13:51:49.938Z,1.40
2017-06-26T13:54:18.046Z,1.60
2017-06-26T13:56:46.200Z,1.00
2017-06-26T13:59:14.681Z,1.45
2017-06-26T14:01:43.129Z,1.27
2017-06-26T14:04:11.205Z,1.20
2017-06-26T14:06:39.303Z,1.20
2017-06-26T14:09:07.437Z,1.40
2017-06-26T14:11:35.487Z,1.30
2017-06-26T14:14:04.333Z,1.60
2017-06-26T14:16:32.867Z,1.30
2017-06-26T14:19:00.917Z,1.40
2017-06-26T14:21:29.364Z,1.65
2017-06-26T14:23:57.486Z,1.02
2017-06-26T14:26:26.301Z,1.20
2017-06-26T14:28:54.387Z,1.30
2017-06-26T14:31:22.902Z,1.17
2017-06-26T14:33:50.997Z,1.23
2017-06-26T14:36:19.450Z,1.30
2017-06-26T14:38:47.505Z,1.75
2017-06-26T14:41:15.582Z,1.70
2017-06-26T14:43:44.407Z,1.12
2017-06-26T14:46:13.270Z,1.30
2017-06-26T14:48:41.347Z,1.30
2017-06-26T14:51:09.406Z,1.10
2017-06-26T14:53:37.701Z,1.50
2017-06-26T14:56:05.770Z,1.30
2017-06-26T14:58:33.821Z,1.20
2017-06-26T15:01:01.970Z,1.48
2017-06-26T15:03:30.031Z,1.40
2017-06-26T15:05:58.843Z,1.35
2017-06-26T15:08:26.981Z,1.50
2017-06-26T15:10:55.849Z,1.15
2017-06-26T15:13:24.745Z,1.50
2017-06-26T15:15:52.793Z,1.65
2017-06-26T15:18:21.697Z,1.35
2017-06-26T15:20:49.757Z,1.27
2017-06-26T15:23:17.810Z,1.12
2017-06-26T15:25:45.919Z,1.23
2017-06-26T15:28:14.365Z,1.40
2017-06-26T15:30:42.476Z,1.35
2017-06-26T15:33:10.529Z,1.80
2017-06-26T15:35:38.621Z,1.48
2017-06-26T15:38:06.705Z,1.30
2017-06-26T15:40:35.529Z,1.50
2017-06-26T15:43:03.609Z,1.48
2017-06-26T15:45:32.065Z,1.75
2017-06-26T15:48:00.202Z,2.03
2017-06-26T15:50:28.258Z,1.52
2017-06-26T15:52:56.310Z,1.40
2017-06-26T15:55:25.195Z,1.73
2017-06-26T15:57:53.229Z,1.30
2017-06-26T16:00:22.053Z,1.85
2017-06-26T16:02:50.930Z,1.50
2017-06-26T16:05:19.381Z,1.70
2017-06-26T16:07:48.239Z,1.95
2017-06-26T16:10:16.309Z,1.60
2017-06-26T16:12:44.382Z,2.40
2017-06-26T16:15:12.475Z,1.60
2017-06-26T16:17:40.574Z,1.90
2017-06-26T16:20:08.654Z,1.75
2017-06-26T16:22:36.768Z,1.55
2017-06-26T16:25:04.837Z,1.55
2017-06-26T16:27:33.342Z,1.83
2017-06-26T16:30:01.461Z,2.05
2017-06-26T16:32:29.547Z,1.40
2017-06-26T16:34:58.025Z,2.22
2017-06-26T16:37:27.472Z,1.65
2017-06-26T16:39:56.201Z,1.60
2017-06-26T16:42:24.706Z,2.03
2017-06-26T16:44:52.778Z,2.05
2017-06-26T16:47:21.239Z,1.80
2017-06-26T16:49:50.092Z,1.90
2017-06-26T16:52:18.185Z,2.58
2017-06-26T16:54:48.172Z,3.08
2017-06-26T16:57:16.641Z,2.03
2017-06-26T16:59:44.740Z,1.80
2017-06-26T17:02:12.828Z,2.25
2017-06-26T17:04:40.942Z,2.65
2017-06-26T17:07:09.425Z,2.33
2017-06-26T17:09:37.926Z,2.70
2017-06-26T17:12:06.369Z,2.20
2017-06-26T17:14:34.529Z,2.20
2017-06-26T17:17:04.093Z,2.00
2017-06-26T17:19:32.205Z,2.80
2017-06-26T17:22:00.262Z,2.58
2017-06-26T17:24:29.449Z,2.37
2017-06-26T17:26:57.541Z,2.40
2017-06-26T17:29:26.439Z,2.67
2017-06-26T17:31:55.333Z,2.87
2017-06-26T17:34:23.419Z,3.03
2017-06-26T17:36:51.481Z,3.50
2017-06-26T17:39:19.582Z,3.58
2017-06-26T17:41:47.637Z,3.40
2017-06-26T17:44:15.696Z,3.92
2017-06-26T17:46:43.877Z,3.00
2017-06-26T17:49:11.936Z,3.72
2017-06-26T17:51:40.786Z,3.50
2017-06-26T17:54:09.609Z,3.83
2017-06-26T17:56:38.057Z,3.58
2017-06-26T17:59:06.152Z,3.58
2017-06-26T18:01:34.242Z,3.42
2017-06-26T18:04:03.686Z,3.83
2017-06-26T18:06:32.054Z,3.70
2017-06-26T18:09:01.302Z,3.83
2017-06-26T18:11:29.354Z,3.70
2017-06-26T18:13:57.821Z,3.85
2017-06-26T18:16:27.928Z,3.90
2017-06-26T18:18:56.006Z,4.10
2017-06-26T18:21:24.454Z,3.83
2017-06-26T18:23:52.554Z,4.28
2017-06-26T18:26:20.653Z,4.20
2017-06-26T18:28:48.718Z,3.95
2017-06-26T18:31:16.774Z,3.92
2017-06-26T18:33:44.861Z,3.90
2017-06-26T18:36:14.421Z,3.87
2017-06-26T18:38:42.523Z,3.85
2017-06-26T18:41:10.578Z,4.10
2017-06-26T18:43:38.709Z,4.55
2017-06-26T18:46:06.806Z,4.30
2017-06-26T18:48:35.634Z,4.70
2017-06-26T18:51:04.094Z,5.47
2017-06-26T18:53:32.898Z,6.47
2017-06-26T18:56:00.985Z,8.00
2017-06-26T18:58:29.445Z,6.68
2017-06-26T19:00:57.530Z,5.30
2017-06-26T19:03:25.732Z,5.22
2017-06-26T19:05:53.868Z,6.30
2017-06-26T19:08:21.937Z,5.80
2017-06-26T19:10:49.999Z,6.10
2017-06-26T19:13:18.081Z,6.12
2017-06-26T19:15:47.527Z,5.60
2017-06-26T19:18:15.559Z,6.03
2017-06-26T19:20:43.731Z,5.68
2017-06-26T19:23:11.786Z,6.30
2017-06-26T19:25:39.862Z,6.93
2017-06-26T19:28:07.945Z,6.03
2017-06-26T19:30:36.117Z,7.18
2017-06-26T19:33:04.197Z,6.40
2017-06-26T19:35:32.253Z,7.10
2017-06-26T19:38:00.378Z,6.72
2017-06-26T19:40:28.445Z,6.40
2017-06-26T19:42:57.890Z,7.37
2017-06-26T19:45:26.293Z,6.75
2017-06-26T19:47:54.392Z,6.30
2017-06-26T19:50:22.546Z,5.50
2017-06-26T19:52:52.626Z,6.70
2017-06-26T19:55:22.666Z,6.65
2017-06-26T19:57:50.722Z,7.82
2017-06-26T20:00:20.366Z,7.07
2017-06-26T20:02:48.529Z,6.43
2017-06-26T20:05:16.625Z,7.30
2017-06-26T20:07:44.670Z,7.40
2017-06-26T20:10:12.747Z,8.35
2017-06-26T20:12:42.354Z,8.02
2017-06-26T20:15:10.450Z,7.28
2017-06-26T20:17:38.506Z,8.23
2017-06-26T20:20:06.617Z,8.45
2017-06-26T20:22:34.701Z,8.55
2017-06-26T20:25:03.532Z,7.85
2017-06-26T20:27:31.641Z,8.65
2017-06-26T20:29:59.985Z,7.65
2017-06-26T20:32:28.069Z,8.45
2017-06-26T20:34:56.245Z,7.87
2017-06-26T20:37:24.293Z,7.40
2017-06-26T20:39:52.469Z,7.20
2017-06-26T20:42:20.550Z,8.65
2017-06-26T20:44:48.730Z,7.35
2017-06-26T20:47:16.906Z,7.78
2017-06-26T20:49:44.993Z,9.13
2017-06-26T20:52:13.145Z,7.70
2017-06-26T20:54:41.241Z,7.57
2017-06-26T20:57:09.306Z,7.07
2017-06-26T20:59:37.465Z,7.95
2017-06-26T21:02:05.542Z,7.45
2017-06-26T21:04:33.618Z,7.53
2017-06-26T21:07:01.678Z,8.38
2017-06-26T21:09:32.033Z,7.57
2017-06-26T21:12:00.110Z,7.70
2017-06-26T21:14:28.254Z,8.18
2017-06-26T21:16:56.424Z,7.80
2017-06-26T21:19:24.497Z,7.97
2017-06-26T21:21:53.790Z,7.37
2017-06-26T21:24:21.886Z,7.82
2017-06-26T21:26:50.042Z,7.80
2017-06-26T21:29:18.210Z,7.80
2017-06-26T21:31:46.285Z,8.55
2017-06-26T21:34:14.405Z,8.50
2017-06-26T21:36:42.533Z,7.87
2017-06-26T21:39:10.714Z,7.32
2017-06-26T21:41:38.901Z,8.20
2017-06-26T21:44:07.058Z,7.75
2017-06-26T21:46:35.125Z,7.70
2017-06-26T21:49:03.252Z,9.15
2017-06-26T21:51:32.106Z,9.00
2017-06-26T21:54:00.157Z,9.00
2017-06-26T21:56:28.338Z,7.55
2017-06-26T21:58:56.390Z,7.80
2017-06-26T22:01:24.581Z,7.80
2017-06-26T22:03:52.653Z,8.85
2017-06-26T22:06:21.125Z,8.20
2017-06-26T22:08:49.213Z,8.30
2017-06-26T22:11:17.301Z,8.15
2017-06-26T22:13:45.457Z,8.93
2017-06-26T22:16:15.062Z,8.25
2017-06-26T22:18:43.226Z,8.25
2017-06-26T22:21:12.633Z,7.45
2017-06-26T22:23:40.706Z,8.30
2017-06-26T22:26:09.913Z,8.05
2017-06-26T22:28:38.005Z,8.63
2017-06-26T22:31:06.153Z,8.20
2017-06-26T22:33:34.225Z,8.68
2017-06-26T22:36:02.305Z,8.40
2017-06-26T22:38:30.360Z,8.32
2017-06-26T22:40:58.434Z,7.87
2017-06-26T22:43:26.485Z,8.13
2017-06-26T22:45:54.581Z,8.77
2017-06-26T22:48:22.646Z,9.10
2017-06-26T22:50:50.718Z,8.82
2017-06-26T22:53:19.557Z,8.02
2017-06-26T22:55:47.614Z,9.30
2017-06-26T22:58:15.761Z,7.80
2017-06-26T23:00:43.939Z,8.10
2017-06-26T23:03:12.022Z,8.43
2017-06-26T23:05:40.173Z,8.40
2017-06-26T23:08:08.354Z,8.00
2017-06-26T23:10:36.414Z,8.80
2017-06-26T23:13:04.485Z,8.45
2017-06-26T23:15:32.570Z,9.02
2017-06-26T23:18:00.645Z,8.63
2017-06-26T23:20:29.545Z,7.85
2017-06-26T23:22:57.630Z,8.27
2017-06-26T23:25:25.687Z,8.82
2017-06-26T23:27:54.510Z,8.57
2017-06-26T23:30:22.585Z,7.45
2017-06-26T23:32:50.721Z,8.70
2017-06-26T23:35:19.565Z,8.10
2017-06-26T23:37:48.385Z,7.57
2017-06-26T23:40:16.857Z,8.77
2017-06-26T23:42:44.950Z,8.25
2017-06-26T23:45:13.034Z,7.90
2017-06-26T23:47:41.105Z,8.82
2017-06-26T23:50:09.557Z,8.00
2017-06-26T23:52:37.633Z,7.62
2017-06-26T23:55:05.705Z,8.00
2017-06-26T23:57:33.777Z,7.90
